sensor_id;sensor_type;location;lat;lon;timestamp;P1;durP1;ratioP1;P2;durP2;ratioP2
52057;SDS011;38063;53.210;6.504;2023-06-14T00:00:31;3.47;;;1.48;;
52057;SDS011;38063;53.210;6.504;2023-06-14T00:02:56;3.97;;;1.58;;
52057;SDS011;38063;53.210;6.504;2023-06-14T00:05:23;3.80;;;1.65;;
52057;SDS011;38063;53.210;6.504;2023-06-14T00:07:49;8.77;;;2.28;;
52057;SDS011;38063;53.210;6.504;2023-06-14T00:10:18;6.55;;;1.88;;
52057;SDS011;38063;53.210;6.504;2023-06-14T00:12:44;2.60;;;1.55;;
52057;SDS011;38063;53.210;6.504;2023-06-14T00:15:10;6.32;;;1.55;;
52057;SDS011;38063;53.210;6.504;2023-06-14T00:17:36;2.60;;;1.60;;
52057;SDS011;38063;53.210;6.504;2023-06-14T00:20:04;6.88;;;1.77;;
52057;SDS011;38063;53.210;6.504;2023-06-14T00:22:33;2.50;;;1.55;;
52057;SDS011;38063;53.210;6.504;2023-06-14T00:24:59;2.63;;;1.45;;
52057;SDS011;38063;53.210;6.504;2023-06-14T00:27:24;2.88;;;1.90;;
52057;SDS011;38063;53.210;6.504;2023-06-14T00:29:51;5.22;;;1.63;;
52057;SDS011;38063;53.210;6.504;2023-06-14T00:32:18;4.05;;;1.70;;
52057;SDS011;38063;53.210;6.504;2023-06-14T00:34:44;4.10;;;1.60;;
52057;SDS011;38063;53.210;6.504;2023-06-14T00:37:09;4.13;;;1.65;;
52057;SDS011;38063;53.210;6.504;2023-06-14T00:39:35;2.40;;;1.40;;
52057;SDS011;38063;53.210;6.504;2023-06-14T00:42:00;5.63;;;1.73;;
52057;SDS011;38063;53.210;6.504;2023-06-14T00:44:26;3.22;;;1.50;;
52057;SDS011;38063;53.210;6.504;2023-06-14T00:46:52;3.95;;;1.63;;
52057;SDS011;38063;53.210;6.504;2023-06-14T00:49:18;4.82;;;1.45;;
52057;SDS011;38063;53.210;6.504;2023-06-14T00:51:46;4.82;;;1.52;;
52057;SDS011;38063;53.210;6.504;2023-06-14T00:54:12;2.42;;;1.38;;
52057;SDS011;38063;53.210;6.504;2023-06-14T00:56:37;3.97;;;1.60;;
52057;SDS011;38063;53.210;6.504;2023-06-14T00:59:04;3.50;;;1.73;;
52057;SDS011;38063;53.210;6.504;2023-06-14T01:01:31;5.53;;;1.38;;
52057;SDS011;38063;53.210;6.504;2023-06-14T01:04:00;3.47;;;1.42;;
52057;SDS011;38063;53.210;6.504;2023-06-14T01:06:41;4.10;;;1.60;;
52057;SDS011;38063;53.210;6.504;2023-06-14T01:12:18;5.53;;;1.50;;
52057;SDS011;38063;53.210;6.504;2023-06-14T01:14:52;3.13;;;1.58;;
52057;SDS011;38063;53.210;6.504;2023-06-14T01:17:20;4.28;;;1.50;;
52057;SDS011;38063;53.210;6.504;2023-06-14T01:19:48;2.20;;;1.67;;
52057;SDS011;38063;53.210;6.504;2023-06-14T01:22:14;5.95;;;1.73;;
52057;SDS011;38063;53.210;6.504;2023-06-14T01:24:40;2.88;;;1.40;;
52057;SDS011;38063;53.210;6.504;2023-06-14T01:27:10;3.35;;;1.75;;
52057;SDS011;38063;53.210;6.504;2023-06-14T01:29:37;3.40;;;1.40;;
52057;SDS011;38063;53.210;6.504;2023-06-14T01:32:10;2.65;;;1.45;;
52057;SDS011;38063;53.210;6.504;2023-06-14T01:34:36;6.57;;;1.60;;
52057;SDS011;38063;53.210;6.504;2023-06-14T01:37:02;3.85;;;1.60;;
52057;SDS011;38063;53.210;6.504;2023-06-14T01:39:28;6.45;;;1.85;;
52057;SDS011;38063;53.210;6.504;2023-06-14T01:41:55;5.25;;;1.75;;
52057;SDS011;38063;53.210;6.504;2023-06-14T01:44:23;2.50;;;1.48;;
52057;SDS011;38063;53.210;6.504;2023-06-14T01:46:49;2.83;;;1.55;;
52057;SDS011;38063;53.210;6.504;2023-06-14T01:49:16;6.18;;;1.40;;
52057;SDS011;38063;53.210;6.504;2023-06-14T01:51:42;5.47;;;1.60;;
52057;SDS011;38063;53.210;6.504;2023-06-14T01:54:07;4.32;;;1.30;;
52057;SDS011;38063;53.210;6.504;2023-06-14T01:56:33;3.35;;;1.40;;
52057;SDS011;38063;53.210;6.504;2023-06-14T01:58:59;5.80;;;1.52;;
52057;SDS011;38063;53.210;6.504;2023-06-14T02:01:24;3.65;;;1.60;;
52057;SDS011;38063;53.210;6.504;2023-06-14T02:03:50;4.32;;;1.67;;
52057;SDS011;38063;53.210;6.504;2023-06-14T02:06:16;3.38;;;1.80;;
52057;SDS011;38063;53.210;6.504;2023-06-14T02:08:42;3.33;;;1.40;;
52057;SDS011;38063;53.210;6.504;2023-06-14T02:11:08;4.57;;;1.73;;
52057;SDS011;38063;53.210;6.504;2023-06-14T02:13:33;4.25;;;1.80;;
52057;SDS011;38063;53.210;6.504;2023-06-14T02:15:59;4.05;;;1.77;;
52057;SDS011;38063;53.210;6.504;2023-06-14T02:18:25;3.40;;;1.80;;
52057;SDS011;38063;53.210;6.504;2023-06-14T02:20:52;4.25;;;1.90;;
52057;SDS011;38063;53.210;6.504;2023-06-14T02:23:18;3.17;;;1.80;;
52057;SDS011;38063;53.210;6.504;2023-06-14T02:25:43;3.85;;;1.55;;
52057;SDS011;38063;53.210;6.504;2023-06-14T02:28:10;4.78;;;1.80;;
52057;SDS011;38063;53.210;6.504;2023-06-14T02:30:36;3.88;;;1.85;;
52057;SDS011;38063;53.210;6.504;2023-06-14T02:33:02;3.25;;;2.00;;
52057;SDS011;38063;53.210;6.504;2023-06-14T02:35:28;4.22;;;1.80;;
52057;SDS011;38063;53.210;6.504;2023-06-14T02:37:55;7.35;;;1.83;;
52057;SDS011;38063;53.210;6.504;2023-06-14T02:40:20;5.13;;;1.90;;
52057;SDS011;38063;53.210;6.504;2023-06-14T02:42:46;4.97;;;1.92;;
52057;SDS011;38063;53.210;6.504;2023-06-14T02:45:12;2.95;;;1.67;;
52057;SDS011;38063;53.210;6.504;2023-06-14T02:47:38;4.60;;;2.15;;
52057;SDS011;38063;53.210;6.504;2023-06-14T02:50:04;5.05;;;1.90;;
52057;SDS011;38063;53.210;6.504;2023-06-14T02:52:30;3.63;;;1.73;;
52057;SDS011;38063;53.210;6.504;2023-06-14T02:54:58;4.28;;;1.95;;
52057;SDS011;38063;53.210;6.504;2023-06-14T02:57:24;4.22;;;2.00;;
52057;SDS011;38063;53.210;6.504;2023-06-14T02:59:49;5.47;;;2.00;;
52057;SDS011;38063;53.210;6.504;2023-06-14T03:02:15;4.78;;;1.88;;
52057;SDS011;38063;53.210;6.504;2023-06-14T03:04:41;5.38;;;2.50;;
52057;SDS011;38063;53.210;6.504;2023-06-14T03:07:09;9.63;;;2.20;;
52057;SDS011;38063;53.210;6.504;2023-06-14T03:09:39;7.72;;;2.25;;
52057;SDS011;38063;53.210;6.504;2023-06-14T03:12:05;4.93;;;2.65;;
52057;SDS011;38063;53.210;6.504;2023-06-14T03:14:32;4.43;;;2.47;;
52057;SDS011;38063;53.210;6.504;2023-06-14T03:16:58;3.97;;;2.10;;
52057;SDS011;38063;53.210;6.504;2023-06-14T03:19:24;3.22;;;2.28;;
52057;SDS011;38063;53.210;6.504;2023-06-14T03:21:51;6.47;;;2.22;;
52057;SDS011;38063;53.210;6.504;2023-06-14T03:24:17;7.60;;;2.47;;
52057;SDS011;38063;53.210;6.504;2023-06-14T03:26:42;4.90;;;2.25;;
52057;SDS011;38063;53.210;6.504;2023-06-14T03:29:08;5.63;;;2.35;;
52057;SDS011;38063;53.210;6.504;2023-06-14T03:31:34;6.63;;;2.50;;
52057;SDS011;38063;53.210;6.504;2023-06-14T03:34:00;4.65;;;2.35;;
52057;SDS011;38063;53.210;6.504;2023-06-14T03:36:26;5.28;;;2.33;;
52057;SDS011;38063;53.210;6.504;2023-06-14T03:38:55;5.55;;;2.65;;
52057;SDS011;38063;53.210;6.504;2023-06-14T03:41:21;5.60;;;2.28;;
52057;SDS011;38063;53.210;6.504;2023-06-14T03:43:47;4.43;;;2.53;;
52057;SDS011;38063;53.210;6.504;2023-06-14T03:46:13;3.60;;;2.05;;
52057;SDS011;38063;53.210;6.504;2023-06-14T03:48:38;7.88;;;2.20;;
52057;SDS011;38063;53.210;6.504;2023-06-14T03:51:04;3.83;;;1.83;;
52057;SDS011;38063;53.210;6.504;2023-06-14T03:53:30;6.20;;;2.38;;
52057;SDS011;38063;53.210;6.504;2023-06-14T03:55:56;7.03;;;2.50;;
52057;SDS011;38063;53.210;6.504;2023-06-14T03:58:22;7.55;;;2.88;;
52057;SDS011;38063;53.210;6.504;2023-06-14T04:00:48;4.38;;;2.42;;
52057;SDS011;38063;53.210;6.504;2023-06-14T04:03:14;8.02;;;2.50;;
52057;SDS011;38063;53.210;6.504;2023-06-14T04:05:40;6.47;;;2.50;;
52057;SDS011;38063;53.210;6.504;2023-06-14T04:08:14;7.97;;;3.00;;
52057;SDS011;38063;53.210;6.504;2023-06-14T04:10:40;5.95;;;3.10;;
52057;SDS011;38063;53.210;6.504;2023-06-14T04:13:06;4.78;;;2.95;;
52057;SDS011;38063;53.210;6.504;2023-06-14T04:15:32;8.50;;;2.22;;
52057;SDS011;38063;53.210;6.504;2023-06-14T04:17:58;4.93;;;2.67;;
52057;SDS011;38063;53.210;6.504;2023-06-14T04:20:24;3.65;;;2.33;;
52057;SDS011;38063;53.210;6.504;2023-06-14T04:22:50;7.63;;;2.88;;
52057;SDS011;38063;53.210;6.504;2023-06-14T04:25:17;6.40;;;2.55;;
52057;SDS011;38063;53.210;6.504;2023-06-14T04:27:43;7.85;;;2.70;;
52057;SDS011;38063;53.210;6.504;2023-06-14T04:30:09;5.20;;;2.55;;
52057;SDS011;38063;53.210;6.504;2023-06-14T04:32:35;5.88;;;2.47;;
52057;SDS011;38063;53.210;6.504;2023-06-14T04:35:07;5.85;;;2.45;;
52057;SDS011;38063;53.210;6.504;2023-06-14T04:37:33;4.55;;;2.97;;
52057;SDS011;38063;53.210;6.504;2023-06-14T04:39:59;6.35;;;2.70;;
52057;SDS011;38063;53.210;6.504;2023-06-14T04:42:25;4.53;;;2.95;;
52057;SDS011;38063;53.210;6.504;2023-06-14T04:44:56;6.00;;;2.47;;
52057;SDS011;38063;53.210;6.504;2023-06-14T04:47:22;7.22;;;2.88;;
52057;SDS011;38063;53.210;6.504;2023-06-14T04:49:50;4.00;;;2.42;;
52057;SDS011;38063;53.210;6.504;2023-06-14T04:52:18;8.65;;;2.65;;
52057;SDS011;38063;53.210;6.504;2023-06-14T04:54:46;5.22;;;2.53;;
52057;SDS011;38063;53.210;6.504;2023-06-14T04:57:12;5.65;;;2.90;;
52057;SDS011;38063;53.210;6.504;2023-06-14T04:59:42;5.60;;;2.92;;
52057;SDS011;38063;53.210;6.504;2023-06-14T05:02:09;5.40;;;2.67;;
52057;SDS011;38063;53.210;6.504;2023-06-14T05:04:38;4.18;;;2.55;;
52057;SDS011;38063;53.210;6.504;2023-06-14T05:07:07;5.90;;;2.67;;
52057;SDS011;38063;53.210;6.504;2023-06-14T05:09:34;8.70;;;3.45;;
52057;SDS011;38063;53.210;6.504;2023-06-14T05:12:01;4.88;;;2.55;;
52057;SDS011;38063;53.210;6.504;2023-06-14T05:14:27;4.38;;;2.97;;
52057;SDS011;38063;53.210;6.504;2023-06-14T05:16:53;5.97;;;2.78;;
52057;SDS011;38063;53.210;6.504;2023-06-14T05:19:19;9.05;;;3.35;;
52057;SDS011;38063;53.210;6.504;2023-06-14T05:21:46;6.28;;;3.05;;
52057;SDS011;38063;53.210;6.504;2023-06-14T05:24:12;5.32;;;3.13;;
52057;SDS011;38063;53.210;6.504;2023-06-14T05:26:39;10.13;;;3.15;;
52057;SDS011;38063;53.210;6.504;2023-06-14T05:29:05;6.75;;;3.67;;
52057;SDS011;38063;53.210;6.504;2023-06-14T05:31:30;10.63;;;3.72;;
52057;SDS011;38063;53.210;6.504;2023-06-14T05:33:56;12.63;;;3.55;;
52057;SDS011;38063;53.210;6.504;2023-06-14T05:36:22;7.30;;;3.80;;
52057;SDS011;38063;53.210;6.504;2023-06-14T05:38:48;8.75;;;3.42;;
52057;SDS011;38063;53.210;6.504;2023-06-14T05:41:13;5.40;;;3.47;;
52057;SDS011;38063;53.210;6.504;2023-06-14T05:43:39;7.57;;;3.50;;
52057;SDS011;38063;53.210;6.504;2023-06-14T05:46:05;5.10;;;3.42;;
52057;SDS011;38063;53.210;6.504;2023-06-14T05:48:31;6.82;;;3.85;;
52057;SDS011;38063;53.210;6.504;2023-06-14T05:50:56;6.03;;;3.05;;
52057;SDS011;38063;53.210;6.504;2023-06-14T05:53:22;8.40;;;3.40;;
52057;SDS011;38063;53.210;6.504;2023-06-14T05:55:49;6.68;;;3.45;;
52057;SDS011;38063;53.210;6.504;2023-06-14T05:58:19;7.43;;;3.75;;
52057;SDS011;38063;53.210;6.504;2023-06-14T06:00:46;6.63;;;3.72;;
52057;SDS011;38063;53.210;6.504;2023-06-14T06:03:11;4.93;;;3.15;;
52057;SDS011;38063;53.210;6.504;2023-06-14T06:05:38;7.53;;;3.22;;
52057;SDS011;38063;53.210;6.504;2023-06-14T06:08:04;6.65;;;3.55;;
52057;SDS011;38063;53.210;6.504;2023-06-14T06:10:30;8.27;;;3.45;;
52057;SDS011;38063;53.210;6.504;2023-06-14T06:12:55;8.07;;;3.42;;
52057;SDS011;38063;53.210;6.504;2023-06-14T06:15:21;5.63;;;2.92;;
52057;SDS011;38063;53.210;6.504;2023-06-14T06:17:47;8.20;;;3.40;;
52057;SDS011;38063;53.210;6.504;2023-06-14T06:20:12;6.65;;;3.28;;
52057;SDS011;38063;53.210;6.504;2023-06-14T06:22:38;11.75;;;3.25;;
52057;SDS011;38063;53.210;6.504;2023-06-14T06:25:04;6.78;;;3.53;;
52057;SDS011;38063;53.210;6.504;2023-06-14T06:27:31;5.63;;;3.58;;
52057;SDS011;38063;53.210;6.504;2023-06-14T06:29:58;5.43;;;3.00;;
52057;SDS011;38063;53.210;6.504;2023-06-14T06:32:23;6.88;;;3.10;;
52057;SDS011;38063;53.210;6.504;2023-06-14T06:34:50;5.25;;;2.80;;
52057;SDS011;38063;53.210;6.504;2023-06-14T06:37:16;7.55;;;3.28;;
52057;SDS011;38063;53.210;6.504;2023-06-14T06:39:42;7.93;;;3.03;;
52057;SDS011;38063;53.210;6.504;2023-06-14T06:42:08;6.18;;;2.70;;
52057;SDS011;38063;53.210;6.504;2023-06-14T06:44:34;7.82;;;2.90;;
52057;SDS011;38063;53.210;6.504;2023-06-14T06:47:00;8.85;;;2.70;;
52057;SDS011;38063;53.210;6.504;2023-06-14T06:49:26;6.47;;;2.88;;
52057;SDS011;38063;53.210;6.504;2023-06-14T06:52:02;5.90;;;2.55;;
52057;SDS011;38063;53.210;6.504;2023-06-14T06:54:29;11.48;;;2.92;;
52057;SDS011;38063;53.210;6.504;2023-06-14T06:56:55;6.07;;;2.47;;
52057;SDS011;38063;53.210;6.504;2023-06-14T06:59:21;7.65;;;2.78;;
52057;SDS011;38063;53.210;6.504;2023-06-14T07:01:46;3.85;;;2.38;;
52057;SDS011;38063;53.210;6.504;2023-06-14T07:04:12;8.68;;;2.83;;
52057;SDS011;38063;53.210;6.504;2023-06-14T07:06:38;5.43;;;2.33;;
52057;SDS011;38063;53.210;6.504;2023-06-14T07:09:04;6.95;;;2.25;;
52057;SDS011;38063;53.210;6.504;2023-06-14T07:11:33;7.45;;;2.90;;
52057;SDS011;38063;53.210;6.504;2023-06-14T07:13:59;4.20;;;2.17;;
52057;SDS011;38063;53.210;6.504;2023-06-14T07:16:25;5.05;;;2.67;;
52057;SDS011;38063;53.210;6.504;2023-06-14T07:18:50;6.03;;;2.13;;
52057;SDS011;38063;53.210;6.504;2023-06-14T07:21:17;7.15;;;2.45;;
52057;SDS011;38063;53.210;6.504;2023-06-14T07:23:43;5.88;;;2.72;;
52057;SDS011;38063;53.210;6.504;2023-06-14T07:26:08;5.35;;;2.38;;
52057;SDS011;38063;53.210;6.504;2023-06-14T07:28:34;6.88;;;2.33;;
52057;SDS011;38063;53.210;6.504;2023-06-14T07:31:00;4.45;;;2.08;;
52057;SDS011;38063;53.210;6.504;2023-06-14T07:33:26;6.85;;;2.45;;
52057;SDS011;38063;53.210;6.504;2023-06-14T07:35:52;4.68;;;2.92;;
52057;SDS011;38063;53.210;6.504;2023-06-14T07:38:18;6.63;;;2.28;;
52057;SDS011;38063;53.210;6.504;2023-06-14T07:40:43;6.50;;;2.55;;
52057;SDS011;38063;53.210;6.504;2023-06-14T07:43:09;6.32;;;2.55;;
52057;SDS011;38063;53.210;6.504;2023-06-14T07:45:36;5.88;;;2.38;;
52057;SDS011;38063;53.210;6.504;2023-06-14T07:48:02;5.43;;;2.50;;
52057;SDS011;38063;53.210;6.504;2023-06-14T07:50:28;5.97;;;2.20;;
52057;SDS011;38063;53.210;6.504;2023-06-14T07:52:54;6.30;;;2.58;;
52057;SDS011;38063;53.210;6.504;2023-06-14T07:55:20;3.75;;;1.80;;
52057;SDS011;38063;53.210;6.504;2023-06-14T07:57:45;5.35;;;2.50;;
52057;SDS011;38063;53.210;6.504;2023-06-14T08:00:11;4.38;;;2.30;;
52057;SDS011;38063;53.210;6.504;2023-06-14T08:02:43;3.47;;;2.17;;
52057;SDS011;38063;53.210;6.504;2023-06-14T08:05:09;10.85;;;2.92;;
52057;SDS011;38063;53.210;6.504;2023-06-14T08:07:38;3.40;;;1.90;;
52057;SDS011;38063;53.210;6.504;2023-06-14T08:10:05;4.95;;;2.45;;
52057;SDS011;38063;53.210;6.504;2023-06-14T08:12:32;5.40;;;2.10;;
52057;SDS011;38063;53.210;6.504;2023-06-14T08:14:58;6.18;;;1.98;;
52057;SDS011;38063;53.210;6.504;2023-06-14T08:17:24;4.65;;;2.00;;
52057;SDS011;38063;53.210;6.504;2023-06-14T08:19:50;3.28;;;1.75;;
52057;SDS011;38063;53.210;6.504;2023-06-14T08:22:16;3.90;;;1.98;;
52057;SDS011;38063;53.210;6.504;2023-06-14T08:24:43;5.13;;;1.80;;
52057;SDS011;38063;53.210;6.504;2023-06-14T08:27:09;4.65;;;2.00;;
52057;SDS011;38063;53.210;6.504;2023-06-14T08:29:35;2.53;;;1.85;;
52057;SDS011;38063;53.210;6.504;2023-06-14T08:32:01;5.00;;;1.83;;
52057;SDS011;38063;53.210;6.504;2023-06-14T08:34:27;3.72;;;1.80;;
52057;SDS011;38063;53.210;6.504;2023-06-14T08:36:52;3.92;;;1.90;;
52057;SDS011;38063;53.210;6.504;2023-06-14T08:39:18;3.72;;;1.90;;
52057;SDS011;38063;53.210;6.504;2023-06-14T08:41:45;3.55;;;2.00;;
52057;SDS011;38063;53.210;6.504;2023-06-14T08:44:12;4.47;;;2.67;;
52057;SDS011;38063;53.210;6.504;2023-06-14T08:46:37;4.88;;;1.70;;
52057;SDS011;38063;53.210;6.504;2023-06-14T08:49:04;5.47;;;2.00;;
52057;SDS011;38063;53.210;6.504;2023-06-14T08:51:31;5.03;;;1.90;;
52057;SDS011;38063;53.210;6.504;2023-06-14T08:54:01;2.67;;;1.85;;
52057;SDS011;38063;53.210;6.504;2023-06-14T08:56:29;4.13;;;1.80;;
52057;SDS011;38063;53.210;6.504;2023-06-14T08:58:56;5.82;;;1.90;;
52057;SDS011;38063;53.210;6.504;2023-06-14T09:01:23;6.18;;;2.20;;
52057;SDS011;38063;53.210;6.504;2023-06-14T09:03:49;3.78;;;1.90;;
52057;SDS011;38063;53.210;6.504;2023-06-14T09:06:15;2.20;;;1.60;;
52057;SDS011;38063;53.210;6.504;2023-06-14T09:11:14;4.53;;;1.77;;
52057;SDS011;38063;53.210;6.504;2023-06-14T09:13:41;4.20;;;1.90;;
52057;SDS011;38063;53.210;6.504;2023-06-14T09:16:08;6.35;;;2.00;;
52057;SDS011;38063;53.210;6.504;2023-06-14T09:21:05;5.60;;;1.95;;
52057;SDS011;38063;53.210;6.504;2023-06-14T09:23:39;5.03;;;2.20;;
52057;SDS011;38063;53.210;6.504;2023-06-14T09:26:14;4.63;;;2.25;;
52057;SDS011;38063;53.210;6.504;2023-06-14T09:28:49;3.35;;;2.03;;
52057;SDS011;38063;53.210;6.504;2023-06-14T09:31:19;2.97;;;1.63;;
52057;SDS011;38063;53.210;6.504;2023-06-14T09:33:46;4.10;;;2.30;;
52057;SDS011;38063;53.210;6.504;2023-06-14T09:36:20;7.28;;;2.55;;
52057;SDS011;38063;53.210;6.504;2023-06-14T09:39:03;2.85;;;1.70;;
52057;SDS011;38063;53.210;6.504;2023-06-14T09:44:06;2.60;;;1.90;;
52057;SDS011;38063;53.210;6.504;2023-06-14T09:46:33;3.00;;;1.80;;
52057;SDS011;38063;53.210;6.504;2023-06-14T09:48:59;5.07;;;1.65;;
52057;SDS011;38063;53.210;6.504;2023-06-14T09:51:27;3.30;;;2.20;;
52057;SDS011;38063;53.210;6.504;2023-06-14T09:53:55;2.90;;;1.63;;
52057;SDS011;38063;53.210;6.504;2023-06-14T09:58:58;3.80;;;1.90;;
52057;SDS011;38063;53.210;6.504;2023-06-14T10:01:25;4.43;;;1.92;;
52057;SDS011;38063;53.210;6.504;2023-06-14T10:03:55;2.33;;;1.80;;
52057;SDS011;38063;53.210;6.504;2023-06-14T10:06:26;1.88;;;1.48;;
52057;SDS011;38063;53.210;6.504;2023-06-14T10:08:53;3.78;;;1.60;;
52057;SDS011;38063;53.210;6.504;2023-06-14T10:11:22;10.75;;;3.28;;
52057;SDS011;38063;53.210;6.504;2023-06-14T10:13:50;5.10;;;2.10;;
52057;SDS011;38063;53.210;6.504;2023-06-14T10:16:29;3.53;;;1.77;;
52057;SDS011;38063;53.210;6.504;2023-06-14T10:21:51;3.97;;;1.88;;
52057;SDS011;38063;53.210;6.504;2023-06-14T10:24:29;4.80;;;1.70;;
52057;SDS011;38063;53.210;6.504;2023-06-14T10:26:58;2.33;;;1.67;;
52057;SDS011;38063;53.210;6.504;2023-06-14T10:29:27;2.80;;;1.67;;
52057;SDS011;38063;53.210;6.504;2023-06-14T10:31:57;3.15;;;1.70;;
52057;SDS011;38063;53.210;6.504;2023-06-14T10:34:24;4.55;;;1.60;;
52057;SDS011;38063;53.210;6.504;2023-06-14T10:39:42;5.72;;;1.80;;
52057;SDS011;38063;53.210;6.504;2023-06-14T10:42:12;3.08;;;1.70;;
52057;SDS011;38063;53.210;6.504;2023-06-14T10:47:34;4.85;;;1.80;;
52057;SDS011;38063;53.210;6.504;2023-06-14T10:50:09;3.65;;;2.10;;
52057;SDS011;38063;53.210;6.504;2023-06-14T10:52:40;2.63;;;1.58;;
52057;SDS011;38063;53.210;6.504;2023-06-14T10:57:45;3.70;;;1.90;;
52057;SDS011;38063;53.210;6.504;2023-06-14T11:00:13;4.07;;;1.83;;
52057;SDS011;38063;53.210;6.504;2023-06-14T11:05:24;6.40;;;2.13;;
52057;SDS011;38063;53.210;6.504;2023-06-14T11:07:58;4.63;;;1.58;;
52057;SDS011;38063;53.210;6.504;2023-06-14T11:10:45;4.25;;;1.80;;
52057;SDS011;38063;53.210;6.504;2023-06-14T11:13:11;6.32;;;2.38;;
52057;SDS011;38063;53.210;6.504;2023-06-14T11:15:37;4.78;;;1.67;;
52057;SDS011;38063;53.210;6.504;2023-06-14T11:18:04;2.85;;;1.80;;
52057;SDS011;38063;53.210;6.504;2023-06-14T11:20:32;5.60;;;1.60;;
52057;SDS011;38063;53.210;6.504;2023-06-14T11:22:59;4.90;;;1.77;;
52057;SDS011;38063;53.210;6.504;2023-06-14T11:25:25;5.35;;;1.50;;
52057;SDS011;38063;53.210;6.504;2023-06-14T11:27:53;6.22;;;1.80;;
52057;SDS011;38063;53.210;6.504;2023-06-14T11:30:19;4.75;;;1.70;;
52057;SDS011;38063;53.210;6.504;2023-06-14T11:32:51;5.63;;;1.70;;
52057;SDS011;38063;53.210;6.504;2023-06-14T11:35:19;5.05;;;1.65;;
52057;SDS011;38063;53.210;6.504;2023-06-14T11:37:48;3.17;;;1.60;;
52057;SDS011;38063;53.210;6.504;2023-06-14T11:40:17;16.00;;;2.67;;
52057;SDS011;38063;53.210;6.504;2023-06-14T11:42:42;5.45;;;2.47;;
52057;SDS011;38063;53.210;6.504;2023-06-14T11:45:09;3.08;;;1.42;;
52057;SDS011;38063;53.210;6.504;2023-06-14T11:47:36;2.80;;;1.40;;
52057;SDS011;38063;53.210;6.504;2023-06-14T11:50:03;3.17;;;1.70;;
52057;SDS011;38063;53.210;6.504;2023-06-14T11:52:30;2.00;;;1.40;;
52057;SDS011;38063;53.210;6.504;2023-06-14T11:54:56;7.10;;;1.60;;
52057;SDS011;38063;53.210;6.504;2023-06-14T11:57:22;6.50;;;1.40;;
52057;SDS011;38063;53.210;6.504;2023-06-14T11:59:48;4.10;;;1.45;;
52057;SDS011;38063;53.210;6.504;2023-06-14T12:02:15;3.17;;;1.33;;
52057;SDS011;38063;53.210;6.504;2023-06-14T12:04:46;6.35;;;1.63;;
52057;SDS011;38063;53.210;6.504;2023-06-14T12:07:14;2.65;;;2.35;;
52057;SDS011;38063;53.210;6.504;2023-06-14T12:12:24;4.03;;;1.60;;
52057;SDS011;38063;53.210;6.504;2023-06-14T12:14:51;2.75;;;1.30;;
52057;SDS011;38063;53.210;6.504;2023-06-14T12:17:17;4.13;;;1.42;;
52057;SDS011;38063;53.210;6.504;2023-06-14T12:19:44;11.48;;;1.70;;
52057;SDS011;38063;53.210;6.504;2023-06-14T12:22:11;3.65;;;1.42;;
52057;SDS011;38063;53.210;6.504;2023-06-14T12:24:43;5.05;;;1.35;;
52057;SDS011;38063;53.210;6.504;2023-06-14T12:27:11;2.60;;;1.05;;
52057;SDS011;38063;53.210;6.504;2023-06-14T12:29:40;3.35;;;1.30;;
52057;SDS011;38063;53.210;6.504;2023-06-14T12:32:08;5.47;;;1.58;;
52057;SDS011;38063;53.210;6.504;2023-06-14T12:34:35;2.40;;;1.35;;
52057;SDS011;38063;53.210;6.504;2023-06-14T12:37:01;2.67;;;1.40;;
52057;SDS011;38063;53.210;6.504;2023-06-14T12:39:28;3.85;;;1.60;;
52057;SDS011;38063;53.210;6.504;2023-06-14T12:41:55;2.53;;;1.30;;
52057;SDS011;38063;53.210;6.504;2023-06-14T12:44:20;4.30;;;1.58;;
52057;SDS011;38063;53.210;6.504;2023-06-14T12:46:46;6.45;;;1.45;;
52057;SDS011;38063;53.210;6.504;2023-06-14T12:49:13;3.03;;;1.42;;
52057;SDS011;38063;53.210;6.504;2023-06-14T12:51:39;5.72;;;1.70;;
52057;SDS011;38063;53.210;6.504;2023-06-14T12:54:05;1.67;;;1.20;;
52057;SDS011;38063;53.210;6.504;2023-06-14T12:56:31;1.83;;;1.42;;
52057;SDS011;38063;53.210;6.504;2023-06-14T12:58:57;5.57;;;1.45;;
52057;SDS011;38063;53.210;6.504;2023-06-14T13:01:23;2.08;;;1.30;;
52057;SDS011;38063;53.210;6.504;2023-06-14T13:03:49;4.45;;;1.77;;
52057;SDS011;38063;53.210;6.504;2023-06-14T13:06:20;4.00;;;1.58;;
52057;SDS011;38063;53.210;6.504;2023-06-14T13:08:46;4.40;;;1.90;;
52057;SDS011;38063;53.210;6.504;2023-06-14T13:11:12;5.97;;;1.40;;
52057;SDS011;38063;53.210;6.504;2023-06-14T13:13:38;7.30;;;1.42;;
52057;SDS011;38063;53.210;6.504;2023-06-14T13:16:03;2.30;;;1.10;;
52057;SDS011;38063;53.210;6.504;2023-06-14T13:18:29;3.70;;;1.50;;
52057;SDS011;38063;53.210;6.504;2023-06-14T13:20:55;3.33;;;1.23;;
52057;SDS011;38063;53.210;6.504;2023-06-14T13:23:20;6.95;;;1.55;;
52057;SDS011;38063;53.210;6.504;2023-06-14T13:25:46;3.03;;;1.48;;
52057;SDS011;38063;53.210;6.504;2023-06-14T13:28:11;6.47;;;1.50;;
52057;SDS011;38063;53.210;6.504;2023-06-14T13:30:37;1.80;;;1.30;;
52057;SDS011;38063;53.210;6.504;2023-06-14T13:33:03;3.35;;;1.35;;
52057;SDS011;38063;53.210;6.504;2023-06-14T13:35:28;6.38;;;1.70;;
52057;SDS011;38063;53.210;6.504;2023-06-14T13:37:54;7.65;;;1.77;;
52057;SDS011;38063;53.210;6.504;2023-06-14T13:40:20;5.15;;;1.48;;
52057;SDS011;38063;53.210;6.504;2023-06-14T13:42:46;3.20;;;1.52;;
52057;SDS011;38063;53.210;6.504;2023-06-14T13:45:12;4.13;;;1.42;;
52057;SDS011;38063;53.210;6.504;2023-06-14T13:47:38;3.25;;;1.10;;
52057;SDS011;38063;53.210;6.504;2023-06-14T13:50:04;4.50;;;1.30;;
52057;SDS011;38063;53.210;6.504;2023-06-14T13:52:30;2.90;;;1.52;;
52057;SDS011;38063;53.210;6.504;2023-06-14T13:54:56;3.25;;;1.50;;
52057;SDS011;38063;53.210;6.504;2023-06-14T13:57:22;2.95;;;1.50;;
52057;SDS011;38063;53.210;6.504;2023-06-14T13:59:48;5.28;;;1.80;;
52057;SDS011;38063;53.210;6.504;2023-06-14T14:02:14;2.85;;;1.75;;
52057;SDS011;38063;53.210;6.504;2023-06-14T14:04:40;3.83;;;1.40;;
52057;SDS011;38063;53.210;6.504;2023-06-14T14:07:06;2.58;;;1.40;;
52057;SDS011;38063;53.210;6.504;2023-06-14T14:09:32;4.20;;;1.52;;
52057;SDS011;38063;53.210;6.504;2023-06-14T14:11:59;2.47;;;1.85;;
52057;SDS011;38063;53.210;6.504;2023-06-14T14:14:27;3.30;;;1.40;;
52057;SDS011;38063;53.210;6.504;2023-06-14T14:16:53;4.68;;;1.60;;
52057;SDS011;38063;53.210;6.504;2023-06-14T14:19:20;1.98;;;1.55;;
52057;SDS011;38063;53.210;6.504;2023-06-14T14:21:46;4.65;;;1.55;;
52057;SDS011;38063;53.210;6.504;2023-06-14T14:24:12;2.58;;;1.63;;
52057;SDS011;38063;53.210;6.504;2023-06-14T14:26:38;3.35;;;1.50;;
52057;SDS011;38063;53.210;6.504;2023-06-14T14:29:05;2.00;;;1.55;;
52057;SDS011;38063;53.210;6.504;2023-06-14T14:31:31;3.10;;;1.60;;
52057;SDS011;38063;53.210;6.504;2023-06-14T14:33:57;4.57;;;2.10;;
52057;SDS011;38063;53.210;6.504;2023-06-14T14:36:23;2.63;;;1.50;;
52057;SDS011;38063;53.210;6.504;2023-06-14T14:38:48;3.88;;;1.38;;
52057;SDS011;38063;53.210;6.504;2023-06-14T14:41:16;3.03;;;1.30;;
52057;SDS011;38063;53.210;6.504;2023-06-14T14:43:42;3.45;;;1.60;;
52057;SDS011;38063;53.210;6.504;2023-06-14T14:46:08;3.35;;;1.55;;
52057;SDS011;38063;53.210;6.504;2023-06-14T14:48:34;2.78;;;1.73;;
52057;SDS011;38063;53.210;6.504;2023-06-14T14:50:59;4.22;;;1.60;;
52057;SDS011;38063;53.210;6.504;2023-06-14T14:53:25;4.38;;;1.58;;
52057;SDS011;38063;53.210;6.504;2023-06-14T14:55:51;2.08;;;1.40;;
52057;SDS011;38063;53.210;6.504;2023-06-14T14:58:16;2.53;;;1.83;;
52057;SDS011;38063;53.210;6.504;2023-06-14T15:00:43;3.13;;;2.03;;
52057;SDS011;38063;53.210;6.504;2023-06-14T15:03:10;2.72;;;1.40;;
52057;SDS011;38063;53.210;6.504;2023-06-14T15:05:35;2.65;;;1.42;;
52057;SDS011;38063;53.210;6.504;2023-06-14T15:08:02;3.47;;;1.83;;
52057;SDS011;38063;53.210;6.504;2023-06-14T15:10:28;3.25;;;1.40;;
52057;SDS011;38063;53.210;6.504;2023-06-14T15:12:54;2.50;;;1.58;;
52057;SDS011;38063;53.210;6.504;2023-06-14T15:15:21;1.95;;;1.40;;